Aérodrome :
LOGIN :

S'inscrire | Disclaimer

   EN    FR    IT 

 










Légende :    VFR   VFR Marginal   IFR   IFR Intensif   IFR Très Intensif
Visi : 
Plafond : 
>= 8 km
>= 3000ft
5 à 8 km
1000 à 3000 ft
1500m à 5 km
500 à 1000 ft
800 à 1500m
200 à 500 ft
< 800m
< 200 ft
Symboles :   Orages  Brouillard  Fortes neiges  Fortes précipitations  Vent > 20 kt
SIGMETs :   Divers  Orages  Givrage  Turbulence  Onde Orograph.  Cendres Volcan.






- Altitude de l'aérodrome : 1161 ft
- Code IATA : RJL


LELO - Logroño-Agoncillo

DERNIER METAR :
  • 201130Z 13003KT 050V190 CAVOK 11/04 Q1026

METARs EXPIRÉS :
  • 201100Z VRB01KT CAVOK 09/04 Q1026
  • 201030Z 00000KT CAVOK 08/03 Q1027
  • 201000Z VRB02KT CAVOK 06/03 Q1027
  • 200930Z 24003KT 210V300 CAVOK 05/02 Q1027
  • 200900Z 24003KT 120V280 CAVOK 03/01 Q1027

TAF TAF LELO
Valide du 20 à 12h jusqu'au 20 à 21h UTC


201100Z 2012/2021 VRB02KT CAVOK



MET'MAP, la Météo Aéronautique d'un coup d'oeil ! - Copyright ORBIFLY Décembre 2007 - Disclaimer

ORBIFLY MET'MAP TEAM :

Programmation & Développement : Alexandra Zaïnal
Sur une idée originale de : Baudouin d'Aumeries
Assistance à la programmation : Marc-Olivier Méhu
Soutien technique & logistique : Manuel Goepfert

Contact : metmap@orbifly.com




SOURCES & CREDITS :

   NOAA